15  °C
Temperature
10  °C
  Dewpoint
   Humidity
Temp | Dewpoint | Humidity
21  km/h
Wind Speed
13  mph
Wind Speed
11  kts
Wind Speed
140°
South East

Wind Speed
Mostly Scattered
Clouds
Pressure 1016.92 (hPa) - 30.03 (in)
Visibility 6.2 (mi) - 10.0 (km)

Current Conditions
YWLM
Location 6km (3.2mi)
Metar :YWLM 120800Z AUTO 14011KT 9999 DZ SCT034 OVC059 15/10 Q1017
Sat 12th October 19:00 pm

Airport
  Metar Aviation API Data Provided by https://www.checkwx.com/ CSS/SVG/PHP scripts by weather34.com © 2015-2019